sensor_id;sensor_type;location;lat;lon;timestamp;P1;durP1;ratioP1;P2;durP2;ratioP2
12253;SDS011;6189;52.526;13.390;2023-04-06T00:02:07;6.33;;;4.93;;
12253;SDS011;6189;52.526;13.390;2023-04-06T00:04:54;6.27;;;5.13;;
12253;SDS011;6189;52.526;13.390;2023-04-06T00:07:40;7.33;;;5.10;;
12253;SDS011;6189;52.526;13.390;2023-04-06T00:10:25;7.97;;;4.90;;
12253;SDS011;6189;52.526;13.390;2023-04-06T00:13:11;7.63;;;4.63;;
12253;SDS011;6189;52.526;13.390;2023-04-06T00:15:57;6.73;;;4.80;;
12253;SDS011;6189;52.526;13.390;2023-04-06T00:18:42;7.10;;;4.80;;
12253;SDS011;6189;52.526;13.390;2023-04-06T00:21:30;8.73;;;5.20;;
12253;SDS011;6189;52.526;13.390;2023-04-06T00:24:16;7.17;;;4.70;;
12253;SDS011;6189;52.526;13.390;2023-04-06T00:27:02;6.90;;;4.83;;
12253;SDS011;6189;52.526;13.390;2023-04-06T00:29:47;6.73;;;4.20;;
12253;SDS011;6189;52.526;13.390;2023-04-06T00:32:33;6.77;;;4.83;;
12253;SDS011;6189;52.526;13.390;2023-04-06T00:35:20;6.27;;;4.43;;
12253;SDS011;6189;52.526;13.390;2023-04-06T00:38:07;7.87;;;5.13;;
12253;SDS011;6189;52.526;13.390;2023-04-06T00:40:52;7.27;;;4.70;;
12253;SDS011;6189;52.526;13.390;2023-04-06T00:43:38;6.93;;;4.83;;
12253;SDS011;6189;52.526;13.390;2023-04-06T00:46:24;7.80;;;3.80;;
12253;SDS011;6189;52.526;13.390;2023-04-06T00:49:09;7.43;;;4.30;;
12253;SDS011;6189;52.526;13.390;2023-04-06T00:51:55;6.03;;;4.03;;
12253;SDS011;6189;52.526;13.390;2023-04-06T00:54:42;6.13;;;4.63;;
12253;SDS011;6189;52.526;13.390;2023-04-06T00:57:28;5.70;;;4.30;;
12253;SDS011;6189;52.526;13.390;2023-04-06T01:00:14;7.03;;;4.20;;
12253;SDS011;6189;52.526;13.390;2023-04-06T01:03:00;7.50;;;4.60;;
12253;SDS011;6189;52.526;13.390;2023-04-06T01:05:46;4.63;;;4.13;;
12253;SDS011;6189;52.526;13.390;2023-04-06T01:08:31;6.20;;;4.80;;
12253;SDS011;6189;52.526;13.390;2023-04-06T01:11:18;6.37;;;4.10;;
12253;SDS011;6189;52.526;13.390;2023-04-06T01:14:04;8.77;;;4.77;;
12253;SDS011;6189;52.526;13.390;2023-04-06T01:16:51;5.27;;;4.30;;
12253;SDS011;6189;52.526;13.390;2023-04-06T01:19:37;4.97;;;4.30;;
12253;SDS011;6189;52.526;13.390;2023-04-06T01:22:25;7.23;;;4.53;;
12253;SDS011;6189;52.526;13.390;2023-04-06T01:25:10;6.57;;;4.73;;
12253;SDS011;6189;52.526;13.390;2023-04-06T01:27:56;6.20;;;4.20;;
12253;SDS011;6189;52.526;13.390;2023-04-06T01:30:42;6.37;;;4.63;;
12253;SDS011;6189;52.526;13.390;2023-04-06T01:33:27;7.17;;;4.67;;
12253;SDS011;6189;52.526;13.390;2023-04-06T01:36:13;7.30;;;4.33;;
12253;SDS011;6189;52.526;13.390;2023-04-06T01:39:00;8.80;;;4.40;;
12253;SDS011;6189;52.526;13.390;2023-04-06T01:41:46;6.73;;;4.23;;
12253;SDS011;6189;52.526;13.390;2023-04-06T01:44:32;6.30;;;4.17;;
12253;SDS011;6189;52.526;13.390;2023-04-06T01:47:18;6.50;;;4.40;;
12253;SDS011;6189;52.526;13.390;2023-04-06T01:50:04;7.93;;;4.97;;
12253;SDS011;6189;52.526;13.390;2023-04-06T01:52:51;6.47;;;4.30;;
12253;SDS011;6189;52.526;13.390;2023-04-06T01:55:38;7.73;;;4.77;;
12253;SDS011;6189;52.526;13.390;2023-04-06T01:58:24;7.40;;;4.93;;
12253;SDS011;6189;52.526;13.390;2023-04-06T02:01:10;5.37;;;4.73;;
12253;SDS011;6189;52.526;13.390;2023-04-06T02:03:55;5.53;;;4.47;;
12253;SDS011;6189;52.526;13.390;2023-04-06T02:06:41;7.57;;;4.10;;
12253;SDS011;6189;52.526;13.390;2023-04-06T02:09:27;6.03;;;4.57;;
12253;SDS011;6189;52.526;13.390;2023-04-06T02:12:14;7.00;;;4.27;;
12253;SDS011;6189;52.526;13.390;2023-04-06T02:15:00;6.87;;;4.80;;
12253;SDS011;6189;52.526;13.390;2023-04-06T02:17:45;6.83;;;4.57;;
12253;SDS011;6189;52.526;13.390;2023-04-06T02:20:31;6.20;;;4.30;;
12253;SDS011;6189;52.526;13.390;2023-04-06T02:23:17;8.87;;;4.67;;
12253;SDS011;6189;52.526;13.390;2023-04-06T02:26:02;7.90;;;4.73;;
12253;SDS011;6189;52.526;13.390;2023-04-06T02:28:50;6.90;;;4.47;;
12253;SDS011;6189;52.526;13.390;2023-04-06T02:31:35;6.53;;;4.40;;
12253;SDS011;6189;52.526;13.390;2023-04-06T02:34:21;8.33;;;4.57;;
12253;SDS011;6189;52.526;13.390;2023-04-06T02:37:07;5.00;;;4.50;;
12253;SDS011;6189;52.526;13.390;2023-04-06T02:39:52;6.50;;;4.30;;
12253;SDS011;6189;52.526;13.390;2023-04-06T02:42:38;6.47;;;4.93;;
12253;SDS011;6189;52.526;13.390;2023-04-06T02:45:25;9.43;;;4.77;;
12253;SDS011;6189;52.526;13.390;2023-04-06T02:48:11;6.90;;;4.90;;
12253;SDS011;6189;52.526;13.390;2023-04-06T02:50:57;8.50;;;4.93;;
12253;SDS011;6189;52.526;13.390;2023-04-06T02:53:43;7.07;;;4.70;;
12253;SDS011;6189;52.526;13.390;2023-04-06T02:56:29;5.63;;;4.97;;
12253;SDS011;6189;52.526;13.390;2023-04-06T02:59:14;4.90;;;4.10;;
12253;SDS011;6189;52.526;13.390;2023-04-06T03:02:01;5.73;;;4.87;;
12253;SDS011;6189;52.526;13.390;2023-04-06T03:04:47;6.77;;;4.70;;
12253;SDS011;6189;52.526;13.390;2023-04-06T03:07:33;5.27;;;4.50;;
12253;SDS011;6189;52.526;13.390;2023-04-06T03:10:18;8.03;;;5.37;;
12253;SDS011;6189;52.526;13.390;2023-04-06T03:13:04;6.87;;;5.03;;
12253;SDS011;6189;52.526;13.390;2023-04-06T03:15:50;7.30;;;5.03;;
12253;SDS011;6189;52.526;13.390;2023-04-06T03:18:37;13.40;;;8.30;;
12253;SDS011;6189;52.526;13.390;2023-04-06T03:21:22;16.83;;;11.10;;
12253;SDS011;6189;52.526;13.390;2023-04-06T03:24:08;23.97;;;13.60;;
12253;SDS011;6189;52.526;13.390;2023-04-06T03:26:54;24.17;;;14.70;;
12253;SDS011;6189;52.526;13.390;2023-04-06T03:29:40;23.87;;;15.70;;
12253;SDS011;6189;52.526;13.390;2023-04-06T03:32:25;26.20;;;15.50;;
12253;SDS011;6189;52.526;13.390;2023-04-06T03:35:13;22.87;;;12.37;;
12253;SDS011;6189;52.526;13.390;2023-04-06T03:37:58;16.50;;;11.23;;
12253;SDS011;6189;52.526;13.390;2023-04-06T03:40:44;19.57;;;10.53;;
12253;SDS011;6189;52.526;13.390;2023-04-06T03:43:30;15.03;;;9.60;;
12253;SDS011;6189;52.526;13.390;2023-04-06T03:46:15;17.43;;;8.40;;
12253;SDS011;6189;52.526;13.390;2023-04-06T03:49:03;9.53;;;6.83;;
12253;SDS011;6189;52.526;13.390;2023-04-06T03:51:49;11.00;;;6.30;;
12253;SDS011;6189;52.526;13.390;2023-04-06T03:54:35;10.53;;;6.57;;
12253;SDS011;6189;52.526;13.390;2023-04-06T03:57:21;10.90;;;6.27;;
12253;SDS011;6189;52.526;13.390;2023-04-06T04:00:07;12.47;;;6.40;;
12253;SDS011;6189;52.526;13.390;2023-04-06T04:02:53;8.03;;;5.10;;
12253;SDS011;6189;52.526;13.390;2023-04-06T04:05:39;8.10;;;5.53;;
12253;SDS011;6189;52.526;13.390;2023-04-06T04:08:26;9.70;;;5.83;;
12253;SDS011;6189;52.526;13.390;2023-04-06T04:11:12;9.57;;;6.17;;
12253;SDS011;6189;52.526;13.390;2023-04-06T04:13:59;7.73;;;5.87;;
12253;SDS011;6189;52.526;13.390;2023-04-06T04:16:44;8.53;;;6.00;;
12253;SDS011;6189;52.526;13.390;2023-04-06T04:19:30;7.87;;;6.40;;
12253;SDS011;6189;52.526;13.390;2023-04-06T04:22:16;8.80;;;6.00;;
12253;SDS011;6189;52.526;13.390;2023-04-06T04:25:03;10.77;;;6.70;;
12253;SDS011;6189;52.526;13.390;2023-04-06T04:27:49;10.47;;;7.40;;
12253;SDS011;6189;52.526;13.390;2023-04-06T04:30:35;11.20;;;7.20;;
12253;SDS011;6189;52.526;13.390;2023-04-06T04:33:20;12.70;;;7.57;;
12253;SDS011;6189;52.526;13.390;2023-04-06T04:36:06;13.77;;;7.80;;
12253;SDS011;6189;52.526;13.390;2023-04-06T04:38:54;17.40;;;8.27;;
12253;SDS011;6189;52.526;13.390;2023-04-06T04:41:41;18.70;;;10.03;;
12253;SDS011;6189;52.526;13.390;2023-04-06T04:44:26;17.30;;;9.87;;
12253;SDS011;6189;52.526;13.390;2023-04-06T04:47:12;19.37;;;10.57;;
12253;SDS011;6189;52.526;13.390;2023-04-06T04:49:58;14.57;;;9.37;;
12253;SDS011;6189;52.526;13.390;2023-04-06T04:52:44;12.93;;;9.33;;
12253;SDS011;6189;52.526;13.390;2023-04-06T04:55:29;13.37;;;9.57;;
12253;SDS011;6189;52.526;13.390;2023-04-06T04:58:19;14.30;;;10.03;;
12253;SDS011;6189;52.526;13.390;2023-04-06T05:01:04;13.13;;;9.47;;
12253;SDS011;6189;52.526;13.390;2023-04-06T05:03:50;9.87;;;8.30;;
12253;SDS011;6189;52.526;13.390;2023-04-06T05:06:36;11.53;;;7.80;;
12253;SDS011;6189;52.526;13.390;2023-04-06T05:09:21;8.97;;;7.60;;
12253;SDS011;6189;52.526;13.390;2023-04-06T05:12:09;9.97;;;7.27;;
12253;SDS011;6189;52.526;13.390;2023-04-06T05:14:56;11.30;;;7.60;;
12253;SDS011;6189;52.526;13.390;2023-04-06T05:17:42;10.57;;;7.53;;
12253;SDS011;6189;52.526;13.390;2023-04-06T05:20:28;8.87;;;7.40;;
12253;SDS011;6189;52.526;13.390;2023-04-06T05:23:14;10.70;;;7.93;;
12253;SDS011;6189;52.526;13.390;2023-04-06T05:25:59;11.63;;;8.40;;
12253;SDS011;6189;52.526;13.390;2023-04-06T05:28:45;9.47;;;7.43;;
12253;SDS011;6189;52.526;13.390;2023-04-06T05:31:32;8.40;;;7.37;;
12253;SDS011;6189;52.526;13.390;2023-04-06T05:34:17;10.63;;;7.57;;
12253;SDS011;6189;52.526;13.390;2023-04-06T05:37:03;7.83;;;7.03;;
12253;SDS011;6189;52.526;13.390;2023-04-06T05:39:49;10.13;;;7.87;;
12253;SDS011;6189;52.526;13.390;2023-04-06T05:42:36;9.07;;;6.90;;
12253;SDS011;6189;52.526;13.390;2023-04-06T05:45:22;11.60;;;8.30;;
12253;SDS011;6189;52.526;13.390;2023-04-06T05:48:09;10.00;;;7.40;;
12253;SDS011;6189;52.526;13.390;2023-04-06T05:50:55;10.07;;;7.17;;
12253;SDS011;6189;52.526;13.390;2023-04-06T05:53:41;13.47;;;7.83;;
12253;SDS011;6189;52.526;13.390;2023-04-06T05:56:27;9.60;;;7.33;;
12253;SDS011;6189;52.526;13.390;2023-04-06T05:59:13;11.67;;;7.07;;
12253;SDS011;6189;52.526;13.390;2023-04-06T06:02:00;9.63;;;7.10;;
12253;SDS011;6189;52.526;13.390;2023-04-06T06:04:47;9.57;;;7.37;;
12253;SDS011;6189;52.526;13.390;2023-04-06T06:07:33;12.60;;;7.03;;
12253;SDS011;6189;52.526;13.390;2023-04-06T06:10:18;10.17;;;7.30;;
12253;SDS011;6189;52.526;13.390;2023-04-06T06:13:04;12.50;;;7.47;;
12253;SDS011;6189;52.526;13.390;2023-04-06T06:15:50;9.70;;;7.67;;
12253;SDS011;6189;52.526;13.390;2023-04-06T06:18:36;10.67;;;8.03;;
12253;SDS011;6189;52.526;13.390;2023-04-06T06:21:23;10.50;;;7.37;;
12253;SDS011;6189;52.526;13.390;2023-04-06T06:24:08;10.73;;;6.80;;
12253;SDS011;6189;52.526;13.390;2023-04-06T06:26:54;12.20;;;7.37;;
12253;SDS011;6189;52.526;13.390;2023-04-06T06:29:39;10.80;;;7.50;;
12253;SDS011;6189;52.526;13.390;2023-04-06T06:32:25;10.63;;;7.57;;
12253;SDS011;6189;52.526;13.390;2023-04-06T06:35:11;14.47;;;7.97;;
12253;SDS011;6189;52.526;13.390;2023-04-06T06:37:58;11.87;;;7.90;;
12253;SDS011;6189;52.526;13.390;2023-04-06T06:40:44;12.90;;;7.37;;
12253;SDS011;6189;52.526;13.390;2023-04-06T06:43:30;11.60;;;8.03;;
12253;SDS011;6189;52.526;13.390;2023-04-06T06:46:16;9.97;;;7.60;;
12253;SDS011;6189;52.526;13.390;2023-04-06T06:49:02;10.20;;;8.20;;
12253;SDS011;6189;52.526;13.390;2023-04-06T06:51:47;9.63;;;7.90;;
12253;SDS011;6189;52.526;13.390;2023-04-06T06:54:34;10.17;;;7.63;;
12253;SDS011;6189;52.526;13.390;2023-04-06T06:57:20;10.17;;;7.50;;
12253;SDS011;6189;52.526;13.390;2023-04-06T07:00:06;11.00;;;7.30;;
12253;SDS011;6189;52.526;13.390;2023-04-06T07:02:52;14.27;;;7.40;;
12253;SDS011;6189;52.526;13.390;2023-04-06T07:05:39;12.33;;;7.30;;
12253;SDS011;6189;52.526;13.390;2023-04-06T07:08:32;11.80;;;6.70;;
12253;SDS011;6189;52.526;13.390;2023-04-06T07:11:20;8.20;;;6.70;;
12253;SDS011;6189;52.526;13.390;2023-04-06T07:14:05;10.83;;;6.83;;
12253;SDS011;6189;52.526;13.390;2023-04-06T07:16:51;11.10;;;6.73;;
12253;SDS011;6189;52.526;13.390;2023-04-06T07:19:37;11.90;;;7.00;;
12253;SDS011;6189;52.526;13.390;2023-04-06T07:22:23;10.90;;;6.90;;
12253;SDS011;6189;52.526;13.390;2023-04-06T07:25:09;8.67;;;6.53;;
12253;SDS011;6189;52.526;13.390;2023-04-06T07:27:56;9.97;;;6.87;;
12253;SDS011;6189;52.526;13.390;2023-04-06T07:30:42;9.70;;;6.80;;
12253;SDS011;6189;52.526;13.390;2023-04-06T07:33:27;12.43;;;6.60;;
12253;SDS011;6189;52.526;13.390;2023-04-06T07:36:13;8.83;;;6.47;;
12253;SDS011;6189;52.526;13.390;2023-04-06T07:38:59;13.73;;;6.77;;
12253;SDS011;6189;52.526;13.390;2023-04-06T07:41:45;9.90;;;6.23;;
12253;SDS011;6189;52.526;13.390;2023-04-06T07:44:32;8.20;;;6.50;;
12253;SDS011;6189;52.526;13.390;2023-04-06T07:47:17;8.13;;;6.43;;
12253;SDS011;6189;52.526;13.390;2023-04-06T07:50:03;10.30;;;6.47;;
12253;SDS011;6189;52.526;13.390;2023-04-06T07:52:49;12.07;;;7.03;;
12253;SDS011;6189;52.526;13.390;2023-04-06T07:55:35;8.33;;;6.30;;
12253;SDS011;6189;52.526;13.390;2023-04-06T07:58:21;9.50;;;5.93;;
12253;SDS011;6189;52.526;13.390;2023-04-06T08:01:10;8.07;;;6.57;;
12253;SDS011;6189;52.526;13.390;2023-04-06T08:03:56;6.67;;;5.00;;
12253;SDS011;6189;52.526;13.390;2023-04-06T08:06:42;10.47;;;6.60;;
12253;SDS011;6189;52.526;13.390;2023-04-06T08:09:28;7.63;;;5.43;;
12253;SDS011;6189;52.526;13.390;2023-04-06T08:12:14;8.37;;;5.73;;
12253;SDS011;6189;52.526;13.390;2023-04-06T08:15:00;8.43;;;5.57;;
12253;SDS011;6189;52.526;13.390;2023-04-06T08:17:49;9.40;;;5.20;;
12253;SDS011;6189;52.526;13.390;2023-04-06T08:20:34;9.90;;;5.10;;
12253;SDS011;6189;52.526;13.390;2023-04-06T08:23:20;5.47;;;4.50;;
12253;SDS011;6189;52.526;13.390;2023-04-06T08:26:06;7.07;;;4.40;;
12253;SDS011;6189;52.526;13.390;2023-04-06T08:28:51;6.40;;;4.00;;
12253;SDS011;6189;52.526;13.390;2023-04-06T08:31:37;6.60;;;4.37;;
12253;SDS011;6189;52.526;13.390;2023-04-06T08:34:24;6.20;;;3.40;;
12253;SDS011;6189;52.526;13.390;2023-04-06T08:37:10;9.73;;;4.20;;
12253;SDS011;6189;52.526;13.390;2023-04-06T08:39:57;11.43;;;4.20;;
12253;SDS011;6189;52.526;13.390;2023-04-06T08:42:44;5.83;;;3.93;;
12253;SDS011;6189;52.526;13.390;2023-04-06T08:45:35;4.90;;;3.67;;
12253;SDS011;6189;52.526;13.390;2023-04-06T08:48:20;5.30;;;3.60;;
12253;SDS011;6189;52.526;13.390;2023-04-06T08:51:09;7.43;;;4.30;;
12253;SDS011;6189;52.526;13.390;2023-04-06T08:53:55;6.57;;;4.10;;
12253;SDS011;6189;52.526;13.390;2023-04-06T08:56:42;6.53;;;3.63;;
12253;SDS011;6189;52.526;13.390;2023-04-06T08:59:28;6.30;;;3.57;;
12253;SDS011;6189;52.526;13.390;2023-04-06T09:02:16;5.87;;;3.33;;
12253;SDS011;6189;52.526;13.390;2023-04-06T09:05:03;4.33;;;3.20;;
12253;SDS011;6189;52.526;13.390;2023-04-06T09:07:50;5.40;;;3.47;;
12253;SDS011;6189;52.526;13.390;2023-04-06T09:10:38;9.37;;;3.40;;
12253;SDS011;6189;52.526;13.390;2023-04-06T09:13:25;6.57;;;2.93;;
12253;SDS011;6189;52.526;13.390;2023-04-06T09:16:11;4.47;;;2.70;;
12253;SDS011;6189;52.526;13.390;2023-04-06T09:19:03;4.17;;;2.57;;
12253;SDS011;6189;52.526;13.390;2023-04-06T09:21:49;4.60;;;3.00;;
12253;SDS011;6189;52.526;13.390;2023-04-06T09:24:43;5.37;;;3.37;;
12253;SDS011;6189;52.526;13.390;2023-04-06T09:27:30;7.63;;;3.10;;
12253;SDS011;6189;52.526;13.390;2023-04-06T09:30:16;4.37;;;3.20;;
12253;SDS011;6189;52.526;13.390;2023-04-06T09:33:02;3.57;;;2.77;;
12253;SDS011;6189;52.526;13.390;2023-04-06T09:35:49;4.40;;;2.83;;
12253;SDS011;6189;52.526;13.390;2023-04-06T09:38:36;6.43;;;2.77;;
12253;SDS011;6189;52.526;13.390;2023-04-06T09:41:24;5.63;;;2.97;;
12253;SDS011;6189;52.526;13.390;2023-04-06T09:44:11;3.57;;;2.50;;
12253;SDS011;6189;52.526;13.390;2023-04-06T09:46:57;3.60;;;2.80;;
12253;SDS011;6189;52.526;13.390;2023-04-06T09:49:43;5.63;;;2.80;;
12253;SDS011;6189;52.526;13.390;2023-04-06T09:52:30;3.17;;;2.80;;
12253;SDS011;6189;52.526;13.390;2023-04-06T09:55:20;3.67;;;2.73;;
12253;SDS011;6189;52.526;13.390;2023-04-06T09:58:12;4.80;;;2.77;;
12253;SDS011;6189;52.526;13.390;2023-04-06T10:01:04;4.77;;;2.80;;
12253;SDS011;6189;52.526;13.390;2023-04-06T10:03:55;3.50;;;2.50;;
12253;SDS011;6189;52.526;13.390;2023-04-06T10:06:43;7.03;;;3.10;;
12253;SDS011;6189;52.526;13.390;2023-04-06T10:09:35;5.20;;;2.80;;
12253;SDS011;6189;52.526;13.390;2023-04-06T10:12:22;4.53;;;2.10;;
12253;SDS011;6189;52.526;13.390;2023-04-06T10:15:10;3.67;;;2.00;;
12253;SDS011;6189;52.526;13.390;2023-04-06T10:17:56;2.83;;;2.03;;
12253;SDS011;6189;52.526;13.390;2023-04-06T10:20:43;2.83;;;2.20;;
12253;SDS011;6189;52.526;13.390;2023-04-06T10:23:35;5.33;;;2.47;;
12253;SDS011;6189;52.526;13.390;2023-04-06T10:26:25;3.40;;;2.30;;
12253;SDS011;6189;52.526;13.390;2023-04-06T10:29:10;6.00;;;2.50;;
12253;SDS011;6189;52.526;13.390;2023-04-06T10:31:57;4.10;;;2.13;;
12253;SDS011;6189;52.526;13.390;2023-04-06T10:34:43;5.10;;;2.60;;
12253;SDS011;6189;52.526;13.390;2023-04-06T10:37:29;8.40;;;3.57;;
12253;SDS011;6189;52.526;13.390;2023-04-06T10:40:32;5.73;;;2.80;;
12253;SDS011;6189;52.526;13.390;2023-04-06T10:43:21;4.53;;;2.20;;
12253;SDS011;6189;52.526;13.390;2023-04-06T10:46:08;3.10;;;1.93;;
12253;SDS011;6189;52.526;13.390;2023-04-06T10:48:55;2.37;;;2.00;;
12253;SDS011;6189;52.526;13.390;2023-04-06T10:51:42;3.90;;;1.80;;
12253;SDS011;6189;52.526;13.390;2023-04-06T10:54:27;8.93;;;2.83;;
12253;SDS011;6189;52.526;13.390;2023-04-06T10:57:15;3.73;;;2.10;;
12253;SDS011;6189;52.526;13.390;2023-04-06T11:00:01;5.53;;;2.70;;
12253;SDS011;6189;52.526;13.390;2023-04-06T11:02:47;6.77;;;2.67;;
12253;SDS011;6189;52.526;13.390;2023-04-06T11:05:35;5.73;;;3.20;;
12253;SDS011;6189;52.526;13.390;2023-04-06T11:08:24;3.53;;;2.30;;
12253;SDS011;6189;52.526;13.390;2023-04-06T11:11:12;2.40;;;2.20;;
12253;SDS011;6189;52.526;13.390;2023-04-06T11:13:59;3.63;;;2.00;;
12253;SDS011;6189;52.526;13.390;2023-04-06T11:16:46;3.23;;;2.37;;
12253;SDS011;6189;52.526;13.390;2023-04-06T11:19:33;3.83;;;2.20;;
12253;SDS011;6189;52.526;13.390;2023-04-06T11:22:21;4.40;;;2.33;;
12253;SDS011;6189;52.526;13.390;2023-04-06T11:25:06;3.13;;;2.30;;
12253;SDS011;6189;52.526;13.390;2023-04-06T11:27:53;3.93;;;2.10;;
12253;SDS011;6189;52.526;13.390;2023-04-06T11:30:38;4.40;;;2.30;;
12253;SDS011;6189;52.526;13.390;2023-04-06T11:33:24;2.57;;;2.13;;
12253;SDS011;6189;52.526;13.390;2023-04-06T11:36:10;3.03;;;2.53;;
12253;SDS011;6189;52.526;13.390;2023-04-06T11:38:59;3.03;;;1.93;;
12253;SDS011;6189;52.526;13.390;2023-04-06T11:41:47;2.97;;;2.37;;
12253;SDS011;6189;52.526;13.390;2023-04-06T11:44:33;5.23;;;2.20;;
12253;SDS011;6189;52.526;13.390;2023-04-06T11:47:20;3.30;;;2.40;;
12253;SDS011;6189;52.526;13.390;2023-04-06T11:50:13;2.43;;;2.00;;
12253;SDS011;6189;52.526;13.390;2023-04-06T11:52:59;5.20;;;2.50;;
12253;SDS011;6189;52.526;13.390;2023-04-06T11:55:48;6.30;;;2.70;;
12253;SDS011;6189;52.526;13.390;2023-04-06T11:58:33;3.80;;;2.50;;
12253;SDS011;6189;52.526;13.390;2023-04-06T12:01:19;4.07;;;2.57;;
12253;SDS011;6189;52.526;13.390;2023-04-06T12:04:05;3.70;;;2.60;;
12253;SDS011;6189;52.526;13.390;2023-04-06T12:06:51;3.47;;;2.67;;
12253;SDS011;6189;52.526;13.390;2023-04-06T12:09:37;2.97;;;2.13;;
12253;SDS011;6189;52.526;13.390;2023-04-06T12:12:24;3.33;;;2.53;;
12253;SDS011;6189;52.526;13.390;2023-04-06T12:15:10;3.47;;;2.70;;
12253;SDS011;6189;52.526;13.390;2023-04-06T12:17:56;3.20;;;2.43;;
12253;SDS011;6189;52.526;13.390;2023-04-06T12:20:41;4.30;;;2.30;;
12253;SDS011;6189;52.526;13.390;2023-04-06T12:23:27;4.27;;;2.70;;
12253;SDS011;6189;52.526;13.390;2023-04-06T12:26:13;3.27;;;2.40;;
12253;SDS011;6189;52.526;13.390;2023-04-06T12:29:00;4.97;;;2.30;;
12253;SDS011;6189;52.526;13.390;2023-04-06T12:31:50;3.27;;;2.50;;
12253;SDS011;6189;52.526;13.390;2023-04-06T12:34:37;3.17;;;2.23;;
12253;SDS011;6189;52.526;13.390;2023-04-06T12:37:22;4.03;;;2.43;;
12253;SDS011;6189;52.526;13.390;2023-04-06T12:40:09;9.67;;;5.00;;
12253;SDS011;6189;52.526;13.390;2023-04-06T12:42:55;5.13;;;4.00;;
12253;SDS011;6189;52.526;13.390;2023-04-06T12:45:43;6.23;;;3.10;;
12253;SDS011;6189;52.526;13.390;2023-04-06T12:48:28;5.00;;;3.10;;
12253;SDS011;6189;52.526;13.390;2023-04-06T12:51:14;3.63;;;2.63;;
12253;SDS011;6189;52.526;13.390;2023-04-06T12:54:01;2.63;;;2.27;;
12253;SDS011;6189;52.526;13.390;2023-04-06T12:56:46;3.10;;;2.73;;
12253;SDS011;6189;52.526;13.390;2023-04-06T12:59:32;3.00;;;2.20;;
12253;SDS011;6189;52.526;13.390;2023-04-06T13:02:20;3.80;;;2.60;;
12253;SDS011;6189;52.526;13.390;2023-04-06T13:05:06;5.83;;;2.50;;
12253;SDS011;6189;52.526;13.390;2023-04-06T13:07:52;3.60;;;2.63;;
12253;SDS011;6189;52.526;13.390;2023-04-06T13:10:37;3.30;;;2.20;;
12253;SDS011;6189;52.526;13.390;2023-04-06T13:13:23;3.60;;;2.77;;
12253;SDS011;6189;52.526;13.390;2023-04-06T13:16:10;3.50;;;2.40;;
12253;SDS011;6189;52.526;13.390;2023-04-06T13:18:57;4.47;;;2.83;;
12253;SDS011;6189;52.526;13.390;2023-04-06T13:21:42;3.47;;;3.10;;
12253;SDS011;6189;52.526;13.390;2023-04-06T13:24:28;3.73;;;2.53;;
12253;SDS011;6189;52.526;13.390;2023-04-06T13:27:14;3.17;;;2.37;;
12253;SDS011;6189;52.526;13.390;2023-04-06T13:29:59;4.57;;;2.63;;
12253;SDS011;6189;52.526;13.390;2023-04-06T13:32:46;3.70;;;2.33;;
12253;SDS011;6189;52.526;13.390;2023-04-06T13:35:33;3.47;;;2.50;;
12253;SDS011;6189;52.526;13.390;2023-04-06T13:38:19;2.30;;;2.03;;
12253;SDS011;6189;52.526;13.390;2023-04-06T13:41:07;2.67;;;1.90;;
12253;SDS011;6189;52.526;13.390;2023-04-06T13:43:53;4.03;;;2.43;;
12253;SDS011;6189;52.526;13.390;2023-04-06T13:46:39;4.13;;;2.70;;
12253;SDS011;6189;52.526;13.390;2023-04-06T13:49:24;3.10;;;2.17;;
12253;SDS011;6189;52.526;13.390;2023-04-06T13:52:12;2.83;;;2.03;;
12253;SDS011;6189;52.526;13.390;2023-04-06T13:54:58;3.03;;;2.70;;
12253;SDS011;6189;52.526;13.390;2023-04-06T13:57:43;4.03;;;2.40;;
12253;SDS011;6189;52.526;13.390;2023-04-06T14:00:29;3.73;;;2.53;;
12253;SDS011;6189;52.526;13.390;2023-04-06T14:03:15;4.53;;;2.43;;
12253;SDS011;6189;52.526;13.390;2023-04-06T14:06:00;4.40;;;2.50;;
12253;SDS011;6189;52.526;13.390;2023-04-06T14:08:48;4.50;;;2.50;;
12253;SDS011;6189;52.526;13.390;2023-04-06T14:11:33;3.70;;;2.63;;
12253;SDS011;6189;52.526;13.390;2023-04-06T14:14:20;4.87;;;2.87;;
12253;SDS011;6189;52.526;13.390;2023-04-06T14:17:06;2.93;;;2.43;;
12253;SDS011;6189;52.526;13.390;2023-04-06T14:19:52;3.63;;;2.70;;
12253;SDS011;6189;52.526;13.390;2023-04-06T14:22:38;4.20;;;2.60;;
12253;SDS011;6189;52.526;13.390;2023-04-06T14:25:25;2.57;;;2.33;;
12253;SDS011;6189;52.526;13.390;2023-04-06T14:28:10;3.30;;;2.40;;
12253;SDS011;6189;52.526;13.390;2023-04-06T14:30:56;3.43;;;2.23;;
12253;SDS011;6189;52.526;13.390;2023-04-06T14:33:43;3.73;;;2.67;;
12253;SDS011;6189;52.526;13.390;2023-04-06T14:36:30;6.77;;;3.03;;
12253;SDS011;6189;52.526;13.390;2023-04-06T14:39:20;5.87;;;2.40;;
12253;SDS011;6189;52.526;13.390;2023-04-06T14:42:07;3.00;;;2.53;;
12253;SDS011;6189;52.526;13.390;2023-04-06T14:44:52;3.57;;;2.33;;
12253;SDS011;6189;52.526;13.390;2023-04-06T14:47:38;4.90;;;2.40;;
12253;SDS011;6189;52.526;13.390;2023-04-06T14:50:24;3.17;;;2.87;;
12253;SDS011;6189;52.526;13.390;2023-04-06T14:53:09;5.80;;;2.83;;
12253;SDS011;6189;52.526;13.390;2023-04-06T14:55:56;3.67;;;2.80;;
12253;SDS011;6189;52.526;13.390;2023-04-06T14:58:43;3.60;;;2.90;;
12253;SDS011;6189;52.526;13.390;2023-04-06T15:01:33;2.93;;;2.50;;
12253;SDS011;6189;52.526;13.390;2023-04-06T15:04:19;4.00;;;2.80;;
12253;SDS011;6189;52.526;13.390;2023-04-06T15:07:05;3.93;;;2.70;;
12253;SDS011;6189;52.526;13.390;2023-04-06T15:09:50;3.97;;;2.80;;
12253;SDS011;6189;52.526;13.390;2023-04-06T15:12:36;4.73;;;2.80;;
12253;SDS011;6189;52.526;13.390;2023-04-06T15:15:23;3.87;;;2.90;;
12253;SDS011;6189;52.526;13.390;2023-04-06T15:18:09;3.60;;;2.67;;
12253;SDS011;6189;52.526;13.390;2023-04-06T15:20:55;3.47;;;2.87;;
12253;SDS011;6189;52.526;13.390;2023-04-06T15:23:40;4.87;;;3.23;;
12253;SDS011;6189;52.526;13.390;2023-04-06T15:26:26;4.03;;;2.80;;
12253;SDS011;6189;52.526;13.390;2023-04-06T15:29:12;4.10;;;2.57;;
12253;SDS011;6189;52.526;13.390;2023-04-06T15:31:59;3.27;;;2.90;;
12253;SDS011;6189;52.526;13.390;2023-04-06T15:34:45;4.80;;;3.10;;
12253;SDS011;6189;52.526;13.390;2023-04-06T15:37:31;4.13;;;3.33;;
12253;SDS011;6189;52.526;13.390;2023-04-06T15:40:16;2.90;;;2.60;;
12253;SDS011;6189;52.526;13.390;2023-04-06T15:43:02;3.50;;;2.40;;
12253;SDS011;6189;52.526;13.390;2023-04-06T15:45:48;2.97;;;2.43;;
12253;SDS011;6189;52.526;13.390;2023-04-06T15:48:35;2.53;;;2.30;;
12253;SDS011;6189;52.526;13.390;2023-04-06T15:51:21;3.47;;;2.80;;
12253;SDS011;6189;52.526;13.390;2023-04-06T15:54:06;3.37;;;2.60;;
12253;SDS011;6189;52.526;13.390;2023-04-06T15:56:52;3.13;;;2.70;;
12253;SDS011;6189;52.526;13.390;2023-04-06T15:59:39;3.93;;;2.73;;
12253;SDS011;6189;52.526;13.390;2023-04-06T16:02:25;5.07;;;3.13;;
12253;SDS011;6189;52.526;13.390;2023-04-06T16:05:12;3.57;;;2.50;;
12253;SDS011;6189;52.526;13.390;2023-04-06T16:07:58;2.87;;;2.50;;
12253;SDS011;6189;52.526;13.390;2023-04-06T16:10:44;3.83;;;2.63;;
12253;SDS011;6189;52.526;13.390;2023-04-06T16:13:30;3.27;;;2.70;;
12253;SDS011;6189;52.526;13.390;2023-04-06T16:16:16;3.83;;;2.40;;
12253;SDS011;6189;52.526;13.390;2023-04-06T16:19:03;3.40;;;2.90;;
12253;SDS011;6189;52.526;13.390;2023-04-06T16:21:50;3.43;;;2.37;;
12253;SDS011;6189;52.526;13.390;2023-04-06T16:24:36;3.80;;;2.53;;
12253;SDS011;6189;52.526;13.390;2023-04-06T16:27:22;5.33;;;3.33;;
12253;SDS011;6189;52.526;13.390;2023-04-06T16:30:08;5.17;;;2.70;;
12253;SDS011;6189;52.526;13.390;2023-04-06T16:32:54;3.23;;;2.90;;
12253;SDS011;6189;52.526;13.390;2023-04-06T16:35:42;4.27;;;3.20;;
12253;SDS011;6189;52.526;13.390;2023-04-06T16:38:29;3.00;;;2.60;;
12253;SDS011;6189;52.526;13.390;2023-04-06T16:41:18;4.47;;;3.00;;